Time;durP1;ratioP1;P1;durP2;ratioP2;P2;SDS_P1;SDS_P2;PMS_P1;PMS_P2;Temp;Humidity;BMP_temperature;BMP_pressure;BME280_temperature;BME280_humidity;BME280_pressure;Samples;Min_cycle;Max_cycle;Signal;HPM_P1;HPM_P2
2022/02/17 00:02:03;;;;;;;0.50;0.30;;;12.60;99.90;;;;;;5013572;28;20463;-79
2022/02/17 00:04:29;;;;;;;0.50;0.33;;;12.50;99.90;;;;;;5013471;28;20529;-79
2022/02/17 00:06:57;;;;;;;0.40;0.30;;;12.40;99.90;;;;;;5012709;28;20446;-78
2022/02/17 00:09:24;;;;;;;0.50;0.40;;;12.30;99.90;;;;;;5012663;28;20435;-79
2022/02/17 00:11:51;;;;;;;0.70;0.63;;;12.30;99.90;;;;;;5013434;28;20446;-79
2022/02/17 00:14:17;;;;;;;0.83;0.83;;;12.30;99.90;;;;;;5012329;28;20805;-79
2022/02/17 00:16:44;;;;;;;0.70;0.30;;;12.30;99.90;;;;;;5012712;28;20828;-79
2022/02/17 01:36:39;;;;;;;3.22;0.88;;;11.00;99.90;;;;;;5017721;28;20386;-79
2022/02/17 01:39:06;;;;;;;0.40;0.40;;;11.00;99.90;;;;;;5015943;28;20200;-78
2022/02/17 01:41:32;;;;;;;0.40;0.30;;;11.00;99.90;;;;;;5025757;28;20203;-79
2022/02/17 01:44:02;;;;;;;0.50;0.40;;;10.90;99.90;;;;;;5031161;28;20212;-79
2022/02/17 01:46:33;;;;;;;0.40;0.30;;;10.90;99.90;;;;;;5027157;28;20203;-79
2022/02/17 01:49:00;;;;;;;0.50;0.50;;;10.90;99.90;;;;;;5024455;28;20270;-79
2022/02/17 01:51:27;;;;;;;0.60;0.50;;;10.90;99.90;;;;;;5021734;28;20493;-79
2022/02/17 01:53:55;;;;;;;2.15;0.80;;;10.80;99.90;;;;;;5015041;28;20952;-79
2022/02/17 01:56:21;;;;;;;0.40;0.40;;;10.80;99.90;;;;;;5014787;28;20200;-78
2022/02/17 01:58:49;;;;;;;0.50;0.50;;;10.80;99.90;;;;;;5014321;28;20220;-78
2022/02/17 02:01:15;;;;;;;0.40;0.30;;;10.90;99.90;;;;;;5014285;28;20450;-78
2022/02/17 02:03:42;;;;;;;1.88;0.73;;;10.90;99.90;;;;;;5014276;28;20200;-79
2022/02/17 02:06:09;;;;;;;0.77;0.57;;;10.90;99.90;;;;;;5014959;28;20199;-79
2022/02/17 02:08:36;;;;;;;0.52;0.50;;;10.90;99.90;;;;;;5014554;28;20219;-79
2022/02/17 02:11:04;;;;;;;1.38;1.27;;;10.90;99.90;;;;;;5014753;28;20334;-80
2022/02/17 02:13:31;;;;;;;0.80;0.70;;;10.90;99.90;;;;;;5014966;28;20250;-80
2022/02/17 02:15:58;;;;;;;1.57;0.50;;;10.90;99.90;;;;;;5015179;28;20192;-79
2022/02/17 02:18:26;;;;;;;3.38;1.25;;;10.90;99.90;;;;;;5014562;28;20470;-79
2022/02/17 02:20:56;;;;;;;1.85;0.85;;;10.80;99.90;;;;;;5014257;28;20479;-78
2022/02/17 02:23:23;;;;;;;2.38;0.43;;;10.70;99.90;;;;;;5014316;28;20279;-79
2022/02/17 02:25:51;;;;;;;3.08;1.52;;;10.60;99.90;;;;;;5014788;28;20225;-79
2022/02/17 02:28:19;;;;;;;7.10;1.17;;;10.60;99.90;;;;;;5014406;28;20239;-79
2022/02/17 02:30:46;;;;;;;4.30;0.88;;;10.50;99.90;;;;;;5013505;28;20435;-80
2022/02/17 02:33:13;;;;;;;1.58;0.50;;;10.50;99.90;;;;;;5013674;28;20200;-79
2022/02/17 02:35:40;;;;;;;2.67;1.02;;;10.50;99.90;;;;;;5013704;28;20831;-79
2022/02/17 02:38:08;;;;;;;0.70;0.70;;;10.50;99.90;;;;;;5014014;28;20223;-79
2022/02/17 02:40:35;;;;;;;0.88;0.80;;;10.50;99.90;;;;;;5014034;28;20669;-79
2022/02/17 02:43:03;;;;;;;0.50;0.30;;;10.40;99.90;;;;;;5014341;28;20669;-80
2022/02/17 02:45:31;;;;;;;0.50;0.43;;;10.50;99.90;;;;;;5013874;28;20222;-79
2022/02/17 02:48:03;;;;;;;2.95;0.75;;;10.50;99.90;;;;;;5014370;28;20216;-79
2022/02/17 02:50:30;;;;;;;9.95;1.25;;;10.60;99.90;;;;;;5013914;28;20254;-79
2022/02/17 02:52:56;;;;;;;0.77;0.77;;;10.60;99.90;;;;;;5014335;28;20237;-79
2022/02/17 02:55:25;;;;;;;1.77;0.90;;;10.60;99.90;;;;;;5013808;28;20222;-78
2022/02/17 02:57:51;;;;;;;11.13;2.30;;;10.50;99.90;;;;;;5013970;28;20216;-80
2022/02/17 03:00:18;;;;;;;0.50;0.30;;;10.50;99.90;;;;;;5013273;28;20191;-79
2022/02/17 03:02:45;;;;;;;0.50;0.40;;;10.40;99.90;;;;;;5013720;28;20200;-79
2022/02/17 03:05:12;;;;;;;0.82;0.70;;;10.40;99.90;;;;;;5014001;28;20215;-79
2022/02/17 03:07:39;;;;;;;3.80;1.50;;;10.40;99.90;;;;;;5013633;28;20231;-80
2022/02/17 03:10:07;;;;;;;0.63;0.63;;;10.40;99.90;;;;;;5013263;28;20200;-80
2022/02/17 03:12:35;;;;;;;0.75;0.75;;;10.30;99.90;;;;;;5013310;28;20196;-79
2022/02/17 03:15:03;;;;;;;0.80;0.80;;;10.30;99.90;;;;;;5013354;28;20230;-79
2022/02/17 03:17:30;;;;;;;1.63;0.85;;;10.20;99.90;;;;;;5013289;28;20223;-80
2022/02/17 03:19:57;;;;;;;0.70;0.60;;;10.20;99.90;;;;;;5012735;28;20676;-78
2022/02/17 03:22:23;;;;;;;3.25;1.25;;;10.20;99.90;;;;;;5013037;28;20200;-79
2022/02/17 03:24:50;;;;;;;5.55;0.93;;;10.20;99.90;;;;;;5012970;28;20215;-79
2022/02/17 03:27:17;;;;;;;0.50;0.30;;;10.10;99.90;;;;;;5012877;28;20251;-78
2022/02/17 03:29:45;;;;;;;2.03;0.60;;;10.10;99.90;;;;;;5012951;28;20282;-78
2022/02/17 03:32:12;;;;;;;0.50;0.40;;;10.10;99.90;;;;;;5013591;28;20274;-79
2022/02/17 03:34:39;;;;;;;3.92;1.05;;;10.20;99.90;;;;;;5012934;28;20200;-79
2022/02/17 03:37:06;;;;;;;1.35;1.25;;;10.20;99.90;;;;;;5012672;28;20226;-80
2022/02/17 03:39:33;;;;;;;1.73;1.63;;;10.30;99.90;;;;;;5012804;28;20662;-79
2022/02/17 03:42:00;;;;;;;4.75;1.10;;;10.30;99.90;;;;;;5012969;28;20290;-79
2022/02/17 03:44:26;;;;;;;0.50;0.40;;;10.30;99.90;;;;;;5013475;28;20207;-79
2022/02/17 03:46:55;;;;;;;0.50;0.30;;;10.30;99.90;;;;;;5013190;28;20200;-77
2022/02/17 03:49:23;;;;;;;0.50;0.40;;;10.30;99.90;;;;;;5012865;28;20639;-78
2022/02/17 03:51:49;;;;;;;2.33;1.80;;;10.20;99.90;;;;;;5013389;28;20199;-76
2022/02/17 03:54:16;;;;;;;7.50;1.92;;;10.30;99.90;;;;;;5013247;28;20194;-79
2022/02/17 03:56:43;;;;;;;0.60;0.60;;;10.30;99.90;;;;;;5012586;28;20187;-76
2022/02/17 03:59:10;;;;;;;0.50;0.40;;;10.30;99.90;;;;;;5012642;28;20264;-78
2022/02/17 04:01:38;;;;;;;8.10;1.05;;;10.30;99.90;;;;;;5012596;28;20258;-77
2022/02/17 04:04:08;;;;;;;1.55;1.45;;;10.30;99.90;;;;;;5012610;28;20677;-78
2022/02/17 04:06:35;;;;;;;1.98;1.85;;;10.20;99.90;;;;;;5012618;28;20224;-78
2022/02/17 04:09:03;;;;;;;1.45;0.77;;;10.20;99.90;;;;;;5011887;28;20606;-77
2022/02/17 04:11:29;;;;;;;3.90;0.93;;;10.20;99.90;;;;;;5012457;28;20196;-77
2022/02/17 04:13:56;;;;;;;1.02;0.98;;;10.20;99.90;;;;;;5012979;28;20208;-78
2022/02/17 04:16:23;;;;;;;0.77;0.77;;;10.20;99.90;;;;;;5016125;28;20200;-77
2022/02/17 04:18:50;;;;;;;1.20;0.47;;;10.20;99.90;;;;;;5015921;28;20616;-78
2022/02/17 04:21:20;;;;;;;1.70;0.80;;;10.10;99.90;;;;;;5015523;28;20230;-80
2022/02/17 04:23:47;;;;;;;0.68;0.68;;;10.10;99.90;;;;;;5015465;28;20187;-78
2022/02/17 04:26:16;;;;;;;2.95;1.58;;;10.10;99.90;;;;;;5015418;28;20274;-79
2022/02/17 04:28:44;;;;;;;1.45;0.90;;;10.10;99.90;;;;;;5015463;28;20625;-79
2022/02/17 04:31:12;;;;;;;2.65;2.45;;;10.10;99.90;;;;;;5015042;28;20269;-77
2022/02/17 04:33:40;;;;;;;0.50;0.40;;;10.10;99.90;;;;;;5014518;28;20254;-78
2022/02/17 04:36:07;;;;;;;4.00;0.82;;;10.20;99.90;;;;;;5015473;28;20605;-78
2022/02/17 04:38:35;;;;;;;0.50;0.40;;;10.10;99.90;;;;;;5015384;28;20285;-79
2022/02/17 04:43:46;;;;;;;0.70;0.68;;;10.10;99.90;;;;;;5014807;28;20242;-79
2022/02/17 04:46:14;;;;;;;4.38;3.58;;;10.10;99.90;;;;;;5015075;28;20590;-78
2022/02/17 04:48:41;;;;;;;3.53;1.15;;;10.10;99.90;;;;;;5014813;28;20717;-79
2022/02/17 04:51:07;;;;;;;0.50;0.40;;;10.10;99.90;;;;;;5014905;28;20230;-78
2022/02/17 04:53:35;;;;;;;6.18;0.60;;;10.10;99.90;;;;;;5014928;28;20204;-78
2022/02/17 04:56:02;;;;;;;4.88;1.08;;;10.10;99.90;;;;;;5014999;28;20191;-78
2022/02/17 04:58:29;;;;;;;2.35;1.02;;;10.10;99.90;;;;;;5014451;28;20665;-80
2022/02/17 05:00:56;;;;;;;0.90;0.80;;;10.20;99.90;;;;;;5014931;28;20543;-78
2022/02/17 05:03:24;;;;;;;0.50;0.40;;;10.20;99.90;;;;;;5015109;28;20200;-78
2022/02/17 05:05:51;;;;;;;1.30;1.20;;;10.20;99.90;;;;;;5014651;28;20766;-78
2022/02/17 05:08:18;;;;;;;1.23;0.70;;;10.20;99.90;;;;;;5014371;28;20237;-78
2022/02/17 05:10:46;;;;;;;0.68;0.68;;;10.20;99.90;;;;;;5014650;28;20310;-77
2022/02/17 05:13:13;;;;;;;2.35;0.88;;;10.20;99.90;;;;;;5014660;28;20203;-78
2022/02/17 05:15:40;;;;;;;1.88;1.08;;;10.10;99.90;;;;;;5014646;28;20232;-78
2022/02/17 05:18:07;;;;;;;7.18;6.43;;;10.10;99.90;;;;;;5015981;28;20255;-77
2022/02/17 05:20:34;;;;;;;4.20;1.48;;;10.10;99.90;;;;;;5015286;28;20199;-78
2022/02/17 05:23:01;;;;;;;1.63;1.47;;;10.10;99.90;;;;;;5015292;28;20203;-79
2022/02/17 05:25:28;;;;;;;1.52;0.75;;;10.10;99.90;;;;;;5015057;28;20570;-78
2022/02/17 05:27:56;;;;;;;7.82;3.90;;;10.00;99.90;;;;;;5015093;28;20220;-78
2022/02/17 05:30:23;;;;;;;1.20;1.02;;;10.00;99.90;;;;;;5015179;28;20203;-78
2022/02/17 05:32:50;;;;;;;0.50;0.40;;;10.00;99.90;;;;;;5014844;28;20230;-78
2022/02/17 05:35:17;;;;;;;0.50;0.40;;;10.00;99.90;;;;;;5016082;28;20192;-78
2022/02/17 05:37:43;;;;;;;1.50;1.40;;;10.00;99.90;;;;;;5015475;28;20705;-79
2022/02/17 05:40:13;;;;;;;3.88;0.60;;;10.00;99.90;;;;;;5014772;28;20806;-78
2022/02/17 05:42:40;;;;;;;1.58;0.60;;;10.00;99.90;;;;;;5015200;28;20266;-78
2022/02/17 05:45:09;;;;;;;0.50;0.40;;;10.00;99.90;;;;;;5015168;28;20196;-79
2022/02/17 05:47:36;;;;;;;4.97;1.75;;;10.00;99.90;;;;;;5015654;28;20618;-79
2022/02/17 05:50:03;;;;;;;0.93;0.70;;;10.00;99.90;;;;;;5014735;28;20250;-79
2022/02/17 05:52:30;;;;;;;7.45;1.02;;;10.00;99.90;;;;;;5014841;28;20690;-78
2022/02/17 05:54:56;;;;;;;1.08;1.08;;;10.00;99.90;;;;;;5015522;28;20203;-75
2022/02/17 05:57:23;;;;;;;1.23;1.05;;;10.00;99.90;;;;;;5014973;28;20282;-78
2022/02/17 05:59:50;;;;;;;0.50;0.40;;;10.00;99.90;;;;;;5015335;28;20203;-78
2022/02/17 06:02:18;;;;;;;0.80;0.80;;;10.10;99.90;;;;;;5014972;28;20196;-78
2022/02/17 06:04:45;;;;;;;1.27;1.17;;;10.00;99.90;;;;;;5016790;28;20254;-79
2022/02/17 06:07:13;;;;;;;7.93;1.67;;;10.00;99.90;;;;;;5016530;28;20232;-78
2022/02/17 06:09:40;;;;;;;0.90;0.65;;;10.00;99.90;;;;;;5016473;28;20224;-78
2022/02/17 06:12:08;;;;;;;1.27;0.50;;;10.00;99.90;;;;;;5016666;28;20211;-78
2022/02/17 06:14:34;;;;;;;7.13;1.00;;;10.00;99.90;;;;;;5017409;28;20199;-79
2022/02/17 06:17:01;;;;;;;1.95;0.95;;;10.00;99.90;;;;;;5017067;28;20192;-79
2022/02/17 06:19:29;;;;;;;0.50;0.40;;;10.00;99.90;;;;;;5017262;28;20204;-77
2022/02/17 06:21:56;;;;;;;3.40;1.10;;;10.00;99.90;;;;;;5020676;28;20700;-79
2022/02/17 06:24:23;;;;;;;3.35;2.30;;;10.00;99.90;;;;;;5022032;28;20688;-80
2022/02/17 06:26:49;;;;;;;1.25;0.70;;;9.90;99.90;;;;;;5021561;28;20231;-79
2022/02/17 06:29:16;;;;;;;0.50;0.50;;;9.90;99.90;;;;;;5018801;28;20196;-80
2022/02/17 06:31:44;;;;;;;3.70;1.90;;;9.90;99.90;;;;;;5019020;28;20200;-80
2022/02/17 06:34:10;;;;;;;1.63;1.05;;;9.90;99.90;;;;;;5019264;28;20547;-79
2022/02/17 06:36:38;;;;;;;8.93;1.33;;;9.80;99.90;;;;;;5019167;28;20638;-80
2022/02/17 06:39:05;;;;;;;0.50;0.43;;;9.80;99.90;;;;;;5018473;28;20223;-80
2022/02/17 06:41:32;;;;;;;2.35;0.60;;;9.80;99.90;;;;;;5021616;28;20212;-79
2022/02/17 06:43:58;;;;;;;3.70;1.58;;;9.80;99.90;;;;;;5022440;28;20206;-79
2022/02/17 06:46:26;;;;;;;3.80;1.63;;;9.80;99.90;;;;;;5020073;28;20215;-80
2022/02/17 06:48:52;;;;;;;3.63;3.42;;;9.80;99.90;;;;;;5019361;28;20212;-79
2022/02/17 06:51:19;;;;;;;3.15;1.15;;;9.70;99.90;;;;;;5014606;28;20250;-79
2022/02/17 06:53:47;;;;;;;2.40;1.10;;;9.70;99.90;;;;;;5014821;28;20212;-77
2022/02/17 06:56:14;;;;;;;1.45;1.35;;;9.70;99.90;;;;;;5013455;28;20198;-77
2022/02/17 06:58:41;;;;;;;3.80;0.93;;;9.80;99.90;;;;;;5013054;28;20223;-78
2022/02/17 07:01:08;;;;;;;1.30;1.02;;;9.60;99.90;;;;;;5012643;28;20264;-77
2022/02/17 07:03:35;;;;;;;2.03;1.73;;;9.30;99.90;;;;;;5012945;28;20669;-75
2022/02/17 07:06:02;;;;;;;1.88;0.93;;;9.10;99.90;;;;;;5012879;28;20223;-77
2022/02/17 07:08:28;;;;;;;1.17;1.08;;;9.10;99.90;;;;;;5012388;28;20660;-77
2022/02/17 07:10:56;;;;;;;2.05;1.52;;;9.10;99.90;;;;;;5012698;28;20590;-77
2022/02/17 07:13:23;;;;;;;1.17;1.08;;;9.20;99.90;;;;;;5012691;28;20200;-77
2022/02/17 07:15:51;;;;;;;2.88;1.10;;;9.30;99.90;;;;;;5012698;28;20222;-77
2022/02/17 07:18:19;;;;;;;0.80;0.63;;;9.30;99.90;;;;;;5012814;28;20244;-77
2022/02/17 07:20:48;;;;;;;11.27;5.85;;;9.30;99.90;;;;;;5012660;28;20745;-74
2022/02/17 07:23:16;;;;;;;2.35;2.25;;;9.30;99.90;;;;;;5012589;28;20273;-77
2022/02/17 07:25:43;;;;;;;0.93;0.93;;;9.40;99.90;;;;;;5012745;28;20696;-77
2022/02/17 07:28:13;;;;;;;0.50;0.50;;;9.40;99.90;;;;;;5012230;28;20246;-78
2022/02/17 07:30:41;;;;;;;2.38;2.20;;;9.40;99.90;;;;;;5012500;28;20200;-77
2022/02/17 07:33:09;;;;;;;0.80;0.77;;;9.40;99.90;;;;;;5012288;28;20195;-77
2022/02/17 07:35:36;;;;;;;0.93;0.60;;;9.50;99.90;;;;;;5012572;28;20261;-78
2022/02/17 07:38:03;;;;;;;0.90;0.90;;;9.60;99.90;;;;;;5012131;28;20219;-78
2022/02/17 07:40:30;;;;;;;1.95;1.50;;;9.50;99.90;;;;;;5012247;28;20192;-75
2022/02/17 07:42:56;;;;;;;0.50;0.50;;;9.50;99.90;;;;;;5012352;28;20206;-77
2022/02/17 07:45:24;;;;;;;1.42;1.30;;;9.60;99.90;;;;;;5012168;28;20200;-77
2022/02/17 07:47:52;;;;;;;5.47;1.55;;;9.90;99.90;;;;;;5013842;28;20226;-78
2022/02/17 07:50:23;;;;;;;1.00;0.95;;;10.40;99.90;;;;;;5018828;28;20235;-78
2022/02/17 07:52:50;;;;;;;1.23;1.13;;;10.90;99.90;;;;;;5018030;28;20176;-76
2022/02/17 07:55:18;;;;;;;0.60;0.50;;;10.80;99.90;;;;;;5018698;28;20251;-77
2022/02/17 07:57:44;;;;;;;1.13;0.75;;;10.40;99.90;;;;;;5018537;28;20258;-77
2022/02/17 08:00:13;;;;;;;3.35;2.47;;;10.20;99.90;;;;;;5018393;28;20195;-77
2022/02/17 08:02:42;;;;;;;3.88;2.67;;;10.00;99.90;;;;;;5018084;28;20195;-78
2022/02/17 08:05:10;;;;;;;1.20;1.20;;;10.50;99.90;;;;;;5018745;28;20196;-78
2022/02/17 08:07:38;;;;;;;3.08;2.75;;;11.10;99.90;;;;;;5018365;28;20299;-77
2022/02/17 08:10:05;;;;;;;0.50;0.40;;;11.10;99.90;;;;;;5018419;28;20315;-79
2022/02/17 08:12:32;;;;;;;1.35;1.25;;;10.60;99.90;;;;;;5018913;28;20449;-77
2022/02/17 08:14:59;;;;;;;4.03;1.38;;;10.10;99.90;;;;;;5019159;28;20196;-76
2022/02/17 08:17:26;;;;;;;1.67;1.05;;;9.60;99.90;;;;;;5018860;28;20304;-78
2022/02/17 08:19:53;;;;;;;0.50;0.40;;;9.40;99.90;;;;;;5018147;28;20210;-74
2022/02/17 08:22:20;;;;;;;8.93;1.75;;;9.40;99.90;;;;;;5018336;28;20196;-78
2022/02/17 08:24:47;;;;;;;1.13;0.75;;;9.20;99.90;;;;;;5018527;28;20200;-76
2022/02/17 08:27:13;;;;;;;7.63;1.38;;;9.10;99.90;;;;;;5018524;28;20230;-78
2022/02/17 08:29:42;;;;;;;0.75;0.75;;;9.10;99.90;;;;;;5018246;28;20210;-77
2022/02/17 08:32:09;;;;;;;0.50;0.40;;;9.00;99.90;;;;;;5018638;28;20234;-77
2022/02/17 08:34:35;;;;;;;0.50;0.40;;;8.90;99.90;;;;;;5018534;28;20265;-77
2022/02/17 08:37:04;;;;;;;0.50;0.40;;;8.90;99.90;;;;;;5017721;28;20199;-78
2022/02/17 08:39:31;;;;;;;0.50;0.40;;;8.90;99.90;;;;;;5017547;28;20206;-77
2022/02/17 08:41:57;;;;;;;8.88;0.93;;;9.20;99.90;;;;;;5018060;28;20227;-76
2022/02/17 08:44:24;;;;;;;0.70;0.60;;;9.20;99.90;;;;;;5017746;28;20260;-78
2022/02/17 08:46:51;;;;;;;1.95;1.15;;;9.10;99.90;;;;;;5018127;28;20214;-78
2022/02/17 08:49:18;;;;;;;0.52;0.50;;;9.00;99.90;;;;;;5017956;28;20196;-77
2022/02/17 08:51:45;;;;;;;1.60;0.75;;;10.00;99.90;;;;;;5017770;28;20669;-78
2022/02/17 08:54:13;;;;;;;1.83;1.02;;;11.60;99.90;;;;;;5018242;28;20200;-77
2022/02/17 08:56:39;;;;;;;1.10;1.00;;;12.10;99.90;;;;;;5018045;28;20266;-77
2022/02/17 08:59:06;;;;;;;0.50;0.43;;;11.40;99.90;;;;;;5016630;28;20577;-77
2022/02/17 09:01:33;;;;;;;3.70;0.88;;;10.70;99.90;;;;;;5014548;28;20570;-76
2022/02/17 09:03:59;;;;;;;0.65;0.52;;;10.70;99.90;;;;;;5014903;28;20204;-78
2022/02/17 09:06:26;;;;;;;1.70;0.82;;;11.40;99.90;;;;;;5014463;28;20212;-77
2022/02/17 09:08:53;;;;;;;0.50;0.40;;;12.50;99.90;;;;;;5013930;28;20224;-77
2022/02/17 09:11:21;;;;;;;3.60;1.50;;;11.90;99.90;;;;;;5014321;28;20192;-78
2022/02/17 09:13:47;;;;;;;0.50;0.40;;;11.20;99.90;;;;;;5014349;28;20696;-77
2022/02/17 09:16:14;;;;;;;11.05;0.65;;;10.60;99.90;;;;;;5014491;28;20786;-78
2022/02/17 09:18:41;;;;;;;0.50;0.50;;;10.20;99.90;;;;;;5014280;28;20306;-77
2022/02/17 09:21:08;;;;;;;1.85;1.58;;;9.80;99.90;;;;;;5014488;28;20261;-77
2022/02/17 09:23:35;;;;;;;1.67;1.30;;;9.60;99.90;;;;;;5014428;28;20203;-76
2022/02/17 09:26:03;;;;;;;4.43;1.77;;;9.60;99.90;;;;;;5013787;28;20199;-78
2022/02/17 09:28:31;;;;;;;0.50;0.40;;;9.90;99.90;;;;;;5014604;28;20247;-78
2022/02/17 09:30:58;;;;;;;0.60;0.40;;;11.60;99.90;;;;;;5013716;28;20199;-78
2022/02/17 09:33:25;;;;;;;2.83;1.70;;;12.30;99.90;;;;;;5014505;28;20485;-78
2022/02/17 09:35:53;;;;;;;1.15;0.93;;;12.00;99.90;;;;;;5013997;28;20545;-78
2022/02/17 09:38:19;;;;;;;1.57;1.47;;;11.70;99.90;;;;;;5013985;28;20227;-78
2022/02/17 09:40:47;;;;;;;2.40;1.10;;;12.60;99.90;;;;;;5013636;28;20813;-78
2022/02/17 09:43:15;;;;;;;2.70;0.80;;;13.20;99.90;;;;;;5014201;28;20474;-78
2022/02/17 09:45:46;;;;;;;3.63;0.70;;;12.30;99.90;;;;;;5013933;28;20494;-78
2022/02/17 09:48:13;;;;;;;0.50;0.40;;;11.80;99.90;;;;;;5013886;28;20478;-77
2022/02/17 09:50:40;;;;;;;0.50;0.40;;;11.30;99.90;;;;;;5013722;28;20439;-78
2022/02/17 09:53:07;;;;;;;1.70;0.75;;;11.30;99.90;;;;;;5013929;28;20443;-78
2022/02/17 09:55:34;;;;;;;0.93;0.73;;;11.00;99.90;;;;;;5013630;28;20200;-78
2022/02/17 09:58:01;;;;;;;10.00;0.93;;;11.20;99.90;;;;;;5013980;28;20451;-78
2022/02/17 10:00:28;;;;;;;0.88;0.88;;;11.20;99.90;;;;;;5015127;28;20876;-79
2022/02/17 10:03:19;;;;;;;0.50;0.40;;;10.90;99.90;;;;;;5015596;28;20199;-74
2022/02/17 10:06:04;;;;;;;5.40;0.88;;;10.70;99.90;;;;;;5016973;28;20200;-79
2022/02/17 10:08:31;;;;;;;0.80;0.80;;;10.40;99.90;;;;;;5016371;28;20433;-79
2022/02/17 10:10:58;;;;;;;5.13;0.70;;;10.40;99.90;;;;;;5014568;28;20203;-79
2022/02/17 10:13:25;;;;;;;0.50;0.40;;;10.30;99.90;;;;;;5013991;28;20203;-77
2022/02/17 10:15:53;;;;;;;1.52;0.50;;;10.30;99.90;;;;;;5013516;28;20203;-78
2022/02/17 10:18:24;;;;;;;1.83;1.02;;;10.50;99.90;;;;;;5013613;28;20314;-78
2022/02/17 10:20:55;;;;;;;0.60;0.50;;;10.50;99.90;;;;;;5013191;28;20192;-76
2022/02/17 10:23:23;;;;;;;0.73;0.60;;;10.50;99.90;;;;;;5013547;28;20624;-78
2022/02/17 10:26:06;;;;;;;0.50;0.40;;;10.60;99.90;;;;;;5013045;28;20246;-77
2022/02/17 10:28:37;;;;;;;0.50;0.40;;;10.40;99.90;;;;;;5012798;28;20224;-77
2022/02/17 10:31:05;;;;;;;0.50;0.40;;;10.10;99.90;;;;;;5013432;28;20538;-78
2022/02/17 10:33:44;;;;;;;0.63;0.63;;;10.00;99.90;;;;;;5013260;28;20206;-78
2022/02/17 10:36:12;;;;;;;2.37;2.17;;;10.00;99.90;;;;;;5012879;28;20199;-77
2022/02/17 10:38:39;;;;;;;0.60;0.45;;;10.00;99.90;;;;;;5013201;28;20461;-77
2022/02/17 10:41:06;;;;;;;1.17;0.60;;;10.30;99.90;;;;;;5012977;28;20238;-78
2022/02/17 10:43:34;;;;;;;0.50;0.40;;;10.70;99.90;;;;;;5013317;28;20199;-77
2022/02/17 10:46:09;;;;;;;0.70;0.50;;;11.10;99.90;;;;;;5012853;28;20210;-76
2022/02/17 10:48:36;;;;;;;0.50;0.40;;;11.70;99.90;;;;;;5012349;28;20565;-77
2022/02/17 10:51:07;;;;;;;3.90;1.13;;;12.00;99.90;;;;;;5012542;28;20443;-77
2022/02/17 10:53:36;;;;;;;0.70;0.57;;;12.30;97.30;;;;;;5012523;28;20435;-77
2022/02/17 10:56:05;;;;;;;0.50;0.40;;;12.70;97.30;;;;;;5012902;28;20443;-78
2022/02/17 10:58:34;;;;;;;1.23;1.20;;;13.30;95.10;;;;;;5012407;28;20877;-78
2022/02/17 11:01:02;;;;;;;0.50;0.40;;;14.10;91.40;;;;;;5013276;28;20542;-76
2022/02/17 11:03:32;;;;;;;0.50;0.40;;;14.30;87.60;;;;;;5020254;28;20444;-77
2022/02/17 11:05:59;;;;;;;1.23;1.13;;;14.10;83.30;;;;;;5020598;28;20434;-75
2022/02/17 11:08:27;;;;;;;2.47;0.80;;;13.60;83.70;;;;;;5020013;28;20506;-77
2022/02/17 11:10:54;;;;;;;0.50;0.40;;;13.00;84.70;;;;;;5021508;28;20447;-77
2022/02/17 11:13:22;;;;;;;0.50;0.40;;;12.10;88.80;;;;;;5018349;28;20434;-76
2022/02/17 11:15:49;;;;;;;0.50;0.40;;;11.50;92.30;;;;;;5016891;28;20442;-77
2022/02/17 11:18:22;;;;;;;0.60;0.60;;;11.20;97.40;;;;;;5019117;28;20459;-75
2022/02/17 11:20:51;;;;;;;0.80;0.57;;;10.90;99.90;;;;;;5020508;28;20456;-77
2022/02/17 11:23:19;;;;;;;0.50;0.40;;;10.90;99.90;;;;;;5018662;28;20199;-78
2022/02/17 11:25:48;;;;;;;8.05;1.20;;;10.90;99.90;;;;;;5019968;28;20231;-77
2022/02/17 11:28:17;;;;;;;0.70;0.50;;;10.70;99.90;;;;;;5019510;28;20225;-78
2022/02/17 11:30:56;;;;;;;2.90;0.60;;;10.90;99.90;;;;;;5020969;28;20199;-77
2022/02/17 11:33:27;;;;;;;0.50;0.40;;;11.10;99.90;;;;;;5015863;28;20204;-78
2022/02/17 11:35:57;;;;;;;1.02;0.52;;;11.30;99.90;;;;;;5017839;28;20180;-76
2022/02/17 11:38:37;;;;;;;0.50;0.40;;;11.10;99.90;;;;;;5016768;28;20219;-78
2022/02/17 11:41:11;;;;;;;0.50;0.50;;;10.90;99.90;;;;;;5015072;28;20557;-78
2022/02/17 11:43:40;;;;;;;1.45;0.85;;;10.40;99.90;;;;;;5012978;28;20188;-77
2022/02/17 11:46:09;;;;;;;0.80;0.70;;;10.20;99.90;;;;;;5012045;28;20242;-78
2022/02/17 11:48:39;;;;;;;0.50;0.40;;;10.10;99.90;;;;;;5011946;28;20589;-77
2022/02/17 11:51:26;;;;;;;0.70;0.57;;;10.00;99.90;;;;;;5011394;28;20695;-78
2022/02/17 11:54:14;;;;;;;1.80;1.02;;;9.90;99.90;;;;;;5007067;28;20198;-78
2022/02/17 11:56:45;;;;;;;0.50;0.40;;;9.70;99.90;;;;;;5012438;28;20596;-79
2022/02/17 11:59:26;;;;;;;2.65;1.30;;;9.60;99.90;;;;;;5011877;28;20201;-78
2022/02/17 12:01:54;;;;;;;0.50;0.50;;;9.60;99.90;;;;;;5012433;28;20702;-79
2022/02/17 12:04:24;;;;;;;4.00;1.38;;;9.60;99.90;;;;;;5012057;28;20203;-78
2022/02/17 12:06:52;;;;;;;28.33;26.35;;;9.50;99.90;;;;;;5012019;28;20191;-77
2022/02/17 12:09:43;;;;;;;5.95;0.88;;;10.20;99.90;;;;;;5015157;28;20274;-79
2022/02/17 12:12:45;;;;;;;2.37;0.63;;;10.90;99.90;;;;;;5019927;28;20191;-79
2022/02/17 12:15:16;;;;;;;0.50;0.43;;;11.70;97.90;;;;;;4977575;28;20921;-80
2022/02/17 12:17:44;;;;;;;0.60;0.50;;;12.40;94.10;;;;;;4978797;28;20524;-79
2022/02/17 12:20:15;;;;;;;2.30;1.80;;;11.90;91.10;;;;;;4978860;28;20443;-79
2022/02/17 12:22:50;;;;;;;1.40;1.27;;;11.20;93.20;;;;;;4980197;28;20452;-79
2022/02/17 12:25:22;;;;;;;0.55;0.45;;;11.10;95.80;;;;;;4982303;28;20203;-79
2022/02/17 12:27:53;;;;;;;2.43;1.50;;;11.30;96.20;;;;;;4982047;28;20216;-75
2022/02/17 12:30:24;;;;;;;0.50;0.40;;;11.00;99.90;;;;;;4977706;28;20491;-79
2022/02/17 12:33:12;;;;;;;0.50;0.40;;;10.80;99.90;;;;;;4970452;28;20204;-78
2022/02/17 12:35:41;;;;;;;0.50;0.40;;;10.70;99.90;;;;;;4972944;28;20193;-79
2022/02/17 12:38:10;;;;;;;0.50;0.40;;;10.90;99.90;;;;;;4974469;28;20220;-79
2022/02/17 12:40:37;;;;;;;0.77;0.77;;;11.20;99.90;;;;;;4974176;28;20208;-76
2022/02/17 12:43:06;;;;;;;0.50;0.40;;;11.20;99.90;;;;;;4975114;28;20201;-77
2022/02/17 12:45:35;;;;;;;0.50;0.40;;;11.30;99.90;;;;;;4985681;28;20453;-78
2022/02/17 12:48:03;;;;;;;0.50;0.40;;;11.50;99.90;;;;;;5015829;28;20479;-78
2022/02/17 12:50:29;;;;;;;0.50;0.50;;;11.10;99.90;;;;;;5015709;28;20446;-79
2022/02/17 12:52:56;;;;;;;1.27;0.70;;;10.80;99.90;;;;;;5015736;28;20688;-75
2022/02/17 12:55:42;;;;;;;0.60;0.60;;;11.10;99.90;;;;;;5016506;28;20449;-76
2022/02/17 12:58:11;;;;;;;6.33;0.70;;;11.40;99.90;;;;;;5016481;28;20486;-78
2022/02/17 13:00:38;;;;;;;0.50;0.50;;;11.70;99.90;;;;;;5017427;28;20427;-78
2022/02/17 13:03:05;;;;;;;0.73;0.70;;;12.10;99.90;;;;;;5024006;28;20454;-78
2022/02/17 13:08:33;;;;;;;0.80;0.77;;;12.80;94.70;;;;;;5019305;28;20472;-80
2022/02/17 13:11:00;;;;;;;2.87;1.43;;;13.10;90.70;;;;;;5018333;28;20848;-79
2022/02/17 13:13:28;;;;;;;1.23;1.23;;;12.80;87.10;;;;;;5019132;28;20442;-78
2022/02/17 13:15:56;;;;;;;6.20;0.77;;;12.70;90.00;;;;;;5024456;28;20500;-77
2022/02/17 13:18:23;;;;;;;1.10;0.50;;;12.60;89.00;;;;;;5042458;28;20998;-77
2022/02/17 13:20:55;;;;;;;0.50;0.40;;;12.90;86.40;;;;;;5027142;28;20446;-77
2022/02/17 13:23:23;;;;;;;3.13;0.90;;;13.30;86.50;;;;;;5043002;28;20530;-79
2022/02/17 13:25:50;;;;;;;0.50;0.40;;;13.30;86.00;;;;;;5039833;28;20464;-79
2022/02/17 13:28:23;;;;;;;0.70;0.57;;;13.10;91.80;;;;;;5041359;28;20531;-78
2022/02/17 13:30:51;;;;;;;0.50;0.30;;;13.30;92.90;;;;;;5040882;28;20419;-78
2022/02/17 13:33:21;;;;;;;0.50;0.50;;;13.50;91.30;;;;;;5038813;28;20458;-78
2022/02/17 13:35:50;;;;;;;0.50;0.40;;;13.90;91.70;;;;;;5037240;28;20446;-79
2022/02/17 13:38:19;;;;;;;0.50;0.40;;;14.00;90.30;;;;;;5036287;28;20613;-78
2022/02/17 13:40:48;;;;;;;0.60;0.47;;;13.20;88.30;;;;;;5035193;28;20438;-78
2022/02/17 13:43:15;;;;;;;0.50;0.40;;;12.70;85.90;;;;;;5035460;28;20493;-78
2022/02/17 13:45:45;;;;;;;0.77;0.50;;;12.30;91.40;;;;;;5039552;28;20442;-79
2022/02/17 13:51:08;;;;;;;3.42;0.60;;;12.20;90.30;;;;;;5132217;27;20544;-77
2022/02/17 13:53:36;;;;;;;0.50;0.40;;;12.10;92.70;;;;;;5133554;28;20199;-77
2022/02/17 13:56:08;;;;;;;0.50;0.40;;;12.30;93.40;;;;;;5130817;28;20539;-76
2022/02/17 13:58:35;;;;;;;0.50;0.40;;;12.10;94.50;;;;;;5130716;28;20507;-76
2022/02/17 14:01:03;;;;;;;3.07;0.93;;;12.40;99.90;;;;;;5129827;27;20440;-77
2022/02/17 14:03:32;;;;;;;0.70;0.50;;;13.10;96.00;;;;;;5130940;27;21043;-76
2022/02/17 14:06:14;;;;;;;1.10;1.00;;;14.00;92.20;;;;;;5130926;27;20811;-77
2022/02/17 14:08:40;;;;;;;1.77;0.77;;;14.90;86.80;;;;;;5130359;27;20456;-76
2022/02/17 14:11:07;;;;;;;0.50;0.30;;;14.80;80.10;;;;;;5130649;27;20490;-77
2022/02/17 14:13:34;;;;;;;0.50;0.40;;;14.80;79.20;;;;;;5130587;27;20482;-76
2022/02/17 14:16:07;;;;;;;0.60;0.53;;;15.30;82.90;;;;;;5135422;27;20523;-75
2022/02/17 14:18:34;;;;;;;1.43;1.33;;;14.90;77.90;;;;;;5131327;27;21032;-77
2022/02/17 14:21:02;;;;;;;0.50;0.40;;;15.10;76.50;;;;;;5130703;27;20494;-76